Bluff, Utah
Current Conditions -  °F | °C
As of 4:55 PM on Friday 28 Nov 2014 (Local Time) from KBDG Reporting Station
Clear Clear  
Wind Chill: 51°   Ceiling: Unl
Heat Index: 51°   Visibility: 10mi
Dew Point: 18°   Wind: 0mph
Humidity: 27%   Direction: NA
Pressure: 30.16"   Gusts: NA
Location:  37.28°N, 109.55°W
Report Text: KBDG 282355Z AUTO 00000KT 10SM CLR 11/M08 A3016 RMK AO1 T01081077 10222 21089
Loading
Personal Weather Stations






























Interactive Weather Map New forecast layout! Learn more

10-Day Weather Forecast

Advertisements
Track Severe Weather on mobile